F/V Cote D'ambre — FPEY — position and weather

sailwx.info

Track history (hours):
 
Tides and Currents Weather Stations Pressure Air Temp Water Temp Dewpoint Dewpoint Depression Visibility Wind Speed Wind Dir Waves Ship Positions

F/V Cote D'ambre

Last reported at 2018-Jun-25 05:42 UTC. Time now 2018-Jun-25 10:07 UTC.
Position N 47°44' W 003°22'.

Length 16 m; draft 4 m.

Type: Fishing. MMSI: 227128800.

Date/timePositionNaut miles runAvg speedWind from/ knotsBaromVisibWave heightAir tempDewpointWater temp
2018-Jun-25 05:42N 47°44' W 003°22'0 0.0
2018-Jun-25 05:30N 47°44' W 003°22'0 0.0
2018-Jun-25 05:00N 47°44' W 003°22'0 0.0
2018-Jun-25 04:30N 47°44' W 003°22'0 0.0
2018-Jun-25 04:00N 47°44' W 003°22'0 0.0
2018-Jun-25 03:30N 47°44' W 003°22'0 0.0
2018-Jun-25 02:59N 47°44' W 003°22'0 0.0
2018-Jun-25 02:30N 47°44' W 003°22'0 0.0
2018-Jun-25 02:00N 47°44' W 003°22'0 0.0
2018-Jun-25 01:30N 47°44' W 003°22'1 1.2
2018-Jun-25 01:00N 47°43' W 003°22'4 8.2
2018-Jun-25 00:30N 47°39' W 003°22'4 8.3
2018-Jun-25 00:00N 47°35' W 003°22'4 8.6
2018-Jun-24 23:30N 47°31' W 003°24'4 8.4
2018-Jun-24 23:00N 47°27' W 003°26'4 8.1
2018-Jun-24 22:30N 47°23' W 003°28'4 8.0
2018-Jun-24 22:00N 47°19' W 003°29'7 1.5
2018-Jun-24 17:13N 47°12' W 003°29'1 3.0
2018-Jun-24 17:00N 47°12' W 003°28'2 3.3
2018-Jun-24 16:30N 47°12' W 003°26'2 3.1
2018-Jun-24 15:57N 47°12' W 003°23'25 1.6
2018-Jun-24 00:08N 46°47' W 003°14'1 3.2
2018-Jun-23 23:49N 46°47' W 003°14'1 3.4
2018-Jun-23 23:29N 46°46' W 003°13'2 3.2
2018-Jun-23 22:58N 46°44' W 003°11'47 1.7
2018-Jun-22 19:09N 47°24' W 003°48'1 3.4
2018-Jun-22 18:54N 47°25' W 003°47'2 3.6
2018-Jun-22 18:28N 47°26' W 003°46'0 1.0
2018-Jun-22 18:00N 47°26' W 003°46'2 3.3
2018-Jun-22 17:20N 47°27' W 003°49'1 3.5
2018-Jun-22 17:00N 47°27' W 003°51'1 2.3
2018-Jun-22 16:30N 47°28' W 003°49'2 3.7
2018-Jun-22 16:00N 47°28' W 003°47'1 1.2
2018-Jun-22 15:30N 47°28' W 003°47'3 1.2
2018-Jun-22 13:04N 47°26' W 003°51'1 3.5
2018-Jun-22 12:49N 47°27' W 003°50'2 3.1
2018-Jun-22 12:08N 47°26' W 003°47'0 0.9
2018-Jun-22 11:53N 47°26' W 003°48'1 2.4
2018-Jun-22 11:27N 47°26' W 003°46'7 1.9
2018-Jun-22 08:00N 47°26' W 003°56'2 3.2
2018-Jun-22 07:28N 47°26' W 003°54'2 3.2
2018-Jun-22 07:00N 47°27' W 003°51'2 3.2
2018-Jun-22 06:30N 47°27' W 003°49'2 3.2
2018-Jun-22 06:00N 47°26' W 003°47'2 3.3
2018-Jun-22 05:30N 47°26' W 003°44'2 4.8
2018-Jun-22 05:00N 47°27' W 003°41'4 8.3
2018-Jun-22 04:30N 47°30' W 003°36'4 8.9
2018-Jun-22 04:00N 47°32' W 003°30'4 8.8
2018-Jun-22 03:30N 47°34' W 003°25'4 8.0
2018-Jun-22 03:00N 47°38' W 003°22'4 8.8
2018-Jun-22 02:30N 47°42' W 003°22'1 2.7
2018-Jun-22 01:58N 47°44' W 003°22'0 0.0
2018-Jun-22 01:28N 47°44' W 003°22'0 0.0
2018-Jun-22 00:58N 47°44' W 003°22'0 0.1
2018-Jun-22 00:30N 47°44' W 003°22'4 8.0
2018-Jun-22 00:00N 47°40' W 003°22'4 8.2
2018-Jun-21 23:30N 47°36' W 003°23'4 7.9
2018-Jun-21 23:00N 47°32' W 003°26'4 8.5
2018-Jun-21 22:30N 47°29' W 003°30'4 7.8
2018-Jun-21 22:00N 47°26' W 003°34'3 6.8
2018-Jun-21 21:30N 47°24' W 003°38'0 0.9
2018-Jun-21 21:00N 47°24' W 003°38'2 3.3
2018-Jun-21 20:30N 47°24' W 003°41'2 3.4
2018-Jun-21 20:00N 47°24' W 003°43'2 3.4
2018-Jun-21 19:29N 47°24' W 003°46'6 4.0
2018-Jun-21 18:05N 47°23' W 003°54'1 1.3
2018-Jun-21 17:00N 47°22' W 003°54'2 3.0
2018-Jun-21 16:23N 47°21' W 003°56'7 1.4
2018-Jun-21 11:16N 47°15' W 004°03'8 3.0
2018-Jun-21 08:46N 47°09' W 003°59'1 3.3
2018-Jun-21 08:29N 47°08' W 003°60'2 3.2
2018-Jun-21 07:58N 47°06' W 004°01'2 4.0
2018-Jun-21 07:29N 47°04' W 004°01'1 2.5
2018-Jun-21 06:54N 47°05' W 003°59'1 3.2
2018-Jun-21 06:27N 47°05' W 003°57'2 3.3
2018-Jun-21 05:57N 47°05' W 003°55'2 3.3
2018-Jun-21 05:29N 47°06' W 003°53'2 3.3
2018-Jun-21 05:00N 47°06' W 003°50'2 3.3
2018-Jun-21 04:28N 47°07' W 003°48'2 3.4
2018-Jun-21 03:58N 47°08' W 003°46'2 3.5
2018-Jun-21 03:30N 47°08' W 003°44'2 3.9
2018-Jun-21 03:00N 47°08' W 003°41'3 5.7
2018-Jun-21 02:30N 47°10' W 003°38'3 6.1
2018-Jun-21 02:00N 47°12' W 003°35'1 1.6
2018-Jun-21 01:30N 47°13' W 003°35'2 3.2
2018-Jun-21 01:00N 47°13' W 003°38'2 3.3
2018-Jun-21 00:31N 47°15' W 003°37'1 2.9
2018-Jun-21 00:00N 47°15' W 003°35'2 3.3
2018-Jun-20 23:30N 47°14' W 003°34'1 2.6
2018-Jun-20 23:00N 47°13' W 003°36'2 3.3
2018-Jun-20 22:30N 47°14' W 003°38'2 3.5
2018-Jun-20 22:00N 47°15' W 003°37'3 3.5
2018-Jun-20 21:14N 47°18' W 003°36'4 2.4
2018-Jun-20 19:42N 47°21' W 003°32'1 3.2
2018-Jun-20 19:30N 47°20' W 003°31'1 2.9
2018-Jun-20 19:00N 47°22' W 003°30'2 3.1
2018-Jun-20 18:30N 47°23' W 003°29'2 3.0
2018-Jun-20 18:00N 47°25' W 003°30'2 3.3
2018-Jun-20 17:30N 47°25' W 003°32'2 3.1
2018-Jun-20 17:00N 47°26' W 003°33'4 7.7
2018-Jun-20 16:30N 47°29' W 003°30'4 8.0
2018-Jun-20 16:00N 47°32' W 003°26'4 8.1
2018-Jun-20 15:30N 47°35' W 003°22'4 8.4
2018-Jun-20 15:00N 47°40' W 003°22'  
2018-Jun-16 02:39N 47°44' W 003°22'0 0.0
2018-Jun-16 02:30N 47°44' W 003°22'0 0.3
2018-Jun-16 01:58N 47°44' W 003°22'0 0.0
2018-Jun-16 01:28N 47°44' W 003°22'0 0.0
2018-Jun-16 00:58N 47°44' W 003°22'1 2.6
2018-Jun-16 00:30N 47°43' W 003°22'4 8.6
2018-Jun-16 00:00N 47°38' W 003°22'4 8.0
2018-Jun-15 23:30N 47°34' W 003°24'4 8.0
2018-Jun-15 23:00N 47°31' W 003°26'4 7.8
2018-Jun-15 22:30N 47°28' W 003°29'4 7.8
2018-Jun-15 22:00N 47°24' W 003°33'4 7.5
2018-Jun-15 21:30N 47°21' W 003°35'1 2.5
2018-Jun-15 21:00N 47°20' W 003°36'5 3.1
2018-Jun-15 19:29N 47°16' W 003°33'12 1.1
2018-Jun-15 09:08N 47°12' W 003°49'0 3.8
2018-Jun-15 09:00N 47°12' W 003°48'2 3.8
2018-Jun-15 08:22N 47°12' W 003°45'3 2.6
2018-Jun-15 07:24N 47°12' W 003°41'1 3.5
2018-Jun-15 06:59N 47°12' W 003°39'3 3.7
2018-Jun-15 06:15N 47°14' W 003°36'1 3.5
2018-Jun-15 05:50N 47°15' W 003°34'  
Track history (hours):
 
Tides and Currents Weather Stations Pressure Air Temp Water Temp Dewpoint Dewpoint Depression Visibility Wind Speed Wind Dir Waves Ship Positions

F/V Cote D'ambre

Last reported at 2018-Jun-25 05:42 UTC. Time now 2018-Jun-25 10:07 UTC.
Position N 47°44' W 003°22'.

Length 16 m; draft 4 m.

Type: Fishing. MMSI: 227128800.

Date/timePositionNaut miles runAvg speedWind from/ knotsBaromVisibWave heightAir tempDewpointWater temp
2018-Jun-25 05:42N 47°44' W 003°22'0 0.0
2018-Jun-25 05:30N 47°44' W 003°22'0 0.0
2018-Jun-25 05:00N 47°44' W 003°22'0 0.0
2018-Jun-25 04:30N 47°44' W 003°22'0 0.0
2018-Jun-25 04:00N 47°44' W 003°22'0 0.0
2018-Jun-25 03:30N 47°44' W 003°22'0 0.0
2018-Jun-25 02:59N 47°44' W 003°22'0 0.0
2018-Jun-25 02:30N 47°44' W 003°22'0 0.0
2018-Jun-25 02:00N 47°44' W 003°22'0 0.0
2018-Jun-25 01:30N 47°44' W 003°22'1 1.2
2018-Jun-25 01:00N 47°43' W 003°22'4 8.2
2018-Jun-25 00:30N 47°39' W 003°22'4 8.3
2018-Jun-25 00:00N 47°35' W 003°22'4 8.6
2018-Jun-24 23:30N 47°31' W 003°24'4 8.4
2018-Jun-24 23:00N 47°27' W 003°26'4 8.1
2018-Jun-24 22:30N 47°23' W 003°28'4 8.0
2018-Jun-24 22:00N 47°19' W 003°29'7 1.5
2018-Jun-24 17:13N 47°12' W 003°29'1 3.0
2018-Jun-24 17:00N 47°12' W 003°28'2 3.3
2018-Jun-24 16:30N 47°12' W 003°26'2 3.1
2018-Jun-24 15:57N 47°12' W 003°23'25 1.6
2018-Jun-24 00:08N 46°47' W 003°14'1 3.2
2018-Jun-23 23:49N 46°47' W 003°14'1 3.4
2018-Jun-23 23:29N 46°46' W 003°13'2 3.2
2018-Jun-23 22:58N 46°44' W 003°11'47 1.7
2018-Jun-22 19:09N 47°24' W 003°48'1 3.4
2018-Jun-22 18:54N 47°25' W 003°47'2 3.6
2018-Jun-22 18:28N 47°26' W 003°46'0 1.0
2018-Jun-22 18:00N 47°26' W 003°46'2 3.3
2018-Jun-22 17:20N 47°27' W 003°49'1 3.5
2018-Jun-22 17:00N 47°27' W 003°51'1 2.3
2018-Jun-22 16:30N 47°28' W 003°49'2 3.7
2018-Jun-22 16:00N 47°28' W 003°47'1 1.2
2018-Jun-22 15:30N 47°28' W 003°47'3 1.2
2018-Jun-22 13:04N 47°26' W 003°51'1 3.5
2018-Jun-22 12:49N 47°27' W 003°50'2 3.1
2018-Jun-22 12:08N 47°26' W 003°47'0 0.9
2018-Jun-22 11:53N 47°26' W 003°48'1 2.4
2018-Jun-22 11:27N 47°26' W 003°46'7 1.9
2018-Jun-22 08:00N 47°26' W 003°56'2 3.2
2018-Jun-22 07:28N 47°26' W 003°54'2 3.2
2018-Jun-22 07:00N 47°27' W 003°51'2 3.2
2018-Jun-22 06:30N 47°27' W 003°49'2 3.2
2018-Jun-22 06:00N 47°26' W 003°47'2 3.3
2018-Jun-22 05:30N 47°26' W 003°44'2 4.8
2018-Jun-22 05:00N 47°27' W 003°41'4 8.3
2018-Jun-22 04:30N 47°30' W 003°36'4 8.9
2018-Jun-22 04:00N 47°32' W 003°30'4 8.8
2018-Jun-22 03:30N 47°34' W 003°25'4 8.0
2018-Jun-22 03:00N 47°38' W 003°22'4 8.8
2018-Jun-22 02:30N 47°42' W 003°22'1 2.7
2018-Jun-22 01:58N 47°44' W 003°22'0 0.0
2018-Jun-22 01:28N 47°44' W 003°22'0 0.0
2018-Jun-22 00:58N 47°44' W 003°22'0 0.1
2018-Jun-22 00:30N 47°44' W 003°22'4 8.0
2018-Jun-22 00:00N 47°40' W 003°22'4 8.2
2018-Jun-21 23:30N 47°36' W 003°23'4 7.9
2018-Jun-21 23:00N 47°32' W 003°26'4 8.5
2018-Jun-21 22:30N 47°29' W 003°30'4 7.8
2018-Jun-21 22:00N 47°26' W 003°34'3 6.8
2018-Jun-21 21:30N 47°24' W 003°38'0 0.9
2018-Jun-21 21:00N 47°24' W 003°38'2 3.3
2018-Jun-21 20:30N 47°24' W 003°41'2 3.4
2018-Jun-21 20:00N 47°24' W 003°43'2 3.4
2018-Jun-21 19:29N 47°24' W 003°46'6 4.0
2018-Jun-21 18:05N 47°23' W 003°54'1 1.3
2018-Jun-21 17:00N 47°22' W 003°54'2 3.0
2018-Jun-21 16:23N 47°21' W 003°56'7 1.4
2018-Jun-21 11:16N 47°15' W 004°03'8 3.0
2018-Jun-21 08:46N 47°09' W 003°59'1 3.3
2018-Jun-21 08:29N 47°08' W 003°60'2 3.2
2018-Jun-21 07:58N 47°06' W 004°01'2 4.0
2018-Jun-21 07:29N 47°04' W 004°01'1 2.5
2018-Jun-21 06:54N 47°05' W 003°59'1 3.2
2018-Jun-21 06:27N 47°05' W 003°57'2 3.3
2018-Jun-21 05:57N 47°05' W 003°55'2 3.3
2018-Jun-21 05:29N 47°06' W 003°53'2 3.3
2018-Jun-21 05:00N 47°06' W 003°50'2 3.3
2018-Jun-21 04:28N 47°07' W 003°48'2 3.4
2018-Jun-21 03:58N 47°08' W 003°46'2 3.5
2018-Jun-21 03:30N 47°08' W 003°44'2 3.9
2018-Jun-21 03:00N 47°08' W 003°41'3 5.7
2018-Jun-21 02:30N 47°10' W 003°38'3 6.1
2018-Jun-21 02:00N 47°12' W 003°35'1 1.6
2018-Jun-21 01:30N 47°13' W 003°35'2 3.2
2018-Jun-21 01:00N 47°13' W 003°38'2 3.3
2018-Jun-21 00:31N 47°15' W 003°37'1 2.9
2018-Jun-21 00:00N 47°15' W 003°35'2 3.3
2018-Jun-20 23:30N 47°14' W 003°34'1 2.6
2018-Jun-20 23:00N 47°13' W 003°36'2 3.3
2018-Jun-20 22:30N 47°14' W 003°38'2 3.5
2018-Jun-20 22:00N 47°15' W 003°37'3 3.5
2018-Jun-20 21:14N 47°18' W 003°36'4 2.4
2018-Jun-20 19:42N 47°21' W 003°32'1 3.2
2018-Jun-20 19:30N 47°20' W 003°31'1 2.9
2018-Jun-20 19:00N 47°22' W 003°30'2 3.1
2018-Jun-20 18:30N 47°23' W 003°29'2 3.0
2018-Jun-20 18:00N 47°25' W 003°30'2 3.3
2018-Jun-20 17:30N 47°25' W 003°32'2 3.1
2018-Jun-20 17:00N 47°26' W 003°33'4 7.7
2018-Jun-20 16:30N 47°29' W 003°30'4 8.0
2018-Jun-20 16:00N 47°32' W 003°26'4 8.1
2018-Jun-20 15:30N 47°35' W 003°22'4 8.4
2018-Jun-20 15:00N 47°40' W 003°22'  
2018-Jun-16 02:39N 47°44' W 003°22'0 0.0
2018-Jun-16 02:30N 47°44' W 003°22'0 0.3
2018-Jun-16 01:58N 47°44' W 003°22'0 0.0
2018-Jun-16 01:28N 47°44' W 003°22'0 0.0
2018-Jun-16 00:58N 47°44' W 003°22'1 2.6
2018-Jun-16 00:30N 47°43' W 003°22'4 8.6
2018-Jun-16 00:00N 47°38' W 003°22'4 8.0
2018-Jun-15 23:30N 47°34' W 003°24'4 8.0
2018-Jun-15 23:00N 47°31' W 003°26'4 7.8
2018-Jun-15 22:30N 47°28' W 003°29'4 7.8
2018-Jun-15 22:00N 47°24' W 003°33'4 7.5
2018-Jun-15 21:30N 47°21' W 003°35'1 2.5
2018-Jun-15 21:00N 47°20' W 003°36'5 3.1
2018-Jun-15 19:29N 47°16' W 003°33'12 1.1
2018-Jun-15 09:08N 47°12' W 003°49'0 3.8
2018-Jun-15 09:00N 47°12' W 003°48'2 3.8
2018-Jun-15 08:22N 47°12' W 003°45'3 2.6
2018-Jun-15 07:24N 47°12' W 003°41'1 3.5
2018-Jun-15 06:59N 47°12' W 003°39'3 3.7
2018-Jun-15 06:15N 47°14' W 003°36'1 3.5
2018-Jun-15 05:50N 47°15' W 003°34'  

Dump ship's entire track history